Time,TemperatureF,DewpointF,PressureIn,WindDirection,WindDirectionDegrees,WindSpeedMPH,WindSpeedGustMPH,Humidity,HourlyPrecipIn,Conditions,Clouds,dailyrainin,SoftwareType,DateUTC
2013-06-28 00:01:00,74.0,44.0,30.09,ENE,69,0.0,0.0,34,0.00,,,0.00,,2013-06-28 05:01:00,
2013-06-28 00:11:00,74.0,44.0,30.09,ENE,69,0.0,0.0,34,0.00,,,0.00,,2013-06-28 05:11:00,
2013-06-28 00:22:00,74.0,45.0,30.09,ENE,69,0.0,0.0,35,0.00,,,0.00,,2013-06-28 05:22:00,
2013-06-28 00:33:00,74.0,45.0,30.09,ENE,69,0.0,0.0,35,0.00,,,0.00,,2013-06-28 05:33:00,
2013-06-28 00:43:00,74.0,45.0,30.09,ENE,69,0.0,0.0,35,0.00,,,0.00,,2013-06-28 05:43:00,
2013-06-28 00:53:00,72.0,46.0,30.11,ENE,69,0.0,0.0,39,0.00,,,0.00,,2013-06-28 05:53:00,
2013-06-28 01:02:00,72.0,46.0,30.11,ENE,69,0.0,0.0,39,0.00,,,0.00,,2013-06-28 06:02:00,
2013-06-28 01:12:00,72.0,46.0,30.11,ENE,69,0.0,0.0,39,0.00,,,0.00,,2013-06-28 06:12:00,
2013-06-28 01:22:00,71.0,47.0,30.10,ENE,69,0.0,0.0,42,0.00,,,0.00,,2013-06-28 06:22:00,
2013-06-28 01:33:00,71.0,47.0,30.10,ENE,69,0.0,0.0,42,0.00,,,0.00,,2013-06-28 06:33:00,
2013-06-28 01:43:00,71.0,47.0,30.10,ENE,69,0.0,0.0,42,0.00,,,0.00,,2013-06-28 06:43:00,
2013-06-28 01:52:00,71.0,47.0,30.11,ENE,69,0.0,0.0,43,0.00,,,0.00,,2013-06-28 06:52:00,
2013-06-28 02:01:00,71.0,47.0,30.11,ENE,69,0.0,0.0,43,0.00,,,0.00,,2013-06-28 07:01:00,
2013-06-28 02:11:00,71.0,47.0,30.11,ENE,69,0.0,0.0,43,0.00,,,0.00,,2013-06-28 07:11:00,
2013-06-28 02:22:00,69.0,47.0,30.11,ENE,69,0.0,0.0,46,0.00,,,0.00,,2013-06-28 07:22:00,
2013-06-28 02:33:00,69.0,47.0,30.11,ENE,69,0.0,0.0,46,0.00,,,0.00,,2013-06-28 07:33:00,
2013-06-28 02:43:00,69.0,47.0,30.11,ENE,69,0.0,0.0,46,0.00,,,0.00,,2013-06-28 07:43:00,
2013-06-28 02:52:00,67.0,47.0,30.09,ENE,69,0.0,0.0,49,0.00,,,0.00,,2013-06-28 07:52:00,
2013-06-28 03:01:00,67.0,47.0,30.09,ENE,69,0.0,0.0,49,0.00,,,0.00,,2013-06-28 08:01:00,
2013-06-28 03:11:00,67.0,47.0,30.09,ENE,69,0.0,0.0,49,0.00,,,0.00,,2013-06-28 08:11:00,
2013-06-28 03:21:00,66.0,48.0,30.09,ENE,69,0.0,0.0,52,0.00,,,0.00,,2013-06-28 08:21:00,
2013-06-28 03:33:00,66.0,48.0,30.09,ENE,69,0.0,0.0,52,0.00,,,0.00,,2013-06-28 08:33:00,
2013-06-28 03:43:00,66.0,48.0,30.09,ENE,69,0.0,0.0,52,0.00,,,0.00,,2013-06-28 08:43:00,
2013-06-28 03:52:00,65.0,47.0,30.07,ENE,69,0.0,0.0,52,0.00,,,0.00,,2013-06-28 08:52:00,
2013-06-28 04:00:00,64.0,48.0,30.09,ENE,69,0.0,0.0,56,0.00,,,0.00,,2013-06-28 09:00:00,
2013-06-28 04:02:00,65.0,47.0,30.07,ENE,69,0.0,0.0,52,0.00,,,0.00,,2013-06-28 09:02:00,
2013-06-28 04:11:00,65.0,47.0,30.07,ENE,69,0.0,0.0,52,0.00,,,0.00,,2013-06-28 09:11:00,
2013-06-28 04:22:00,64.0,48.0,30.09,ENE,69,0.0,0.0,56,0.00,,,0.00,,2013-06-28 09:22:00,
2013-06-28 04:33:00,64.0,48.0,30.09,ENE,69,0.0,0.0,56,0.00,,,0.00,,2013-06-28 09:33:00,
2013-06-28 04:42:00,64.0,48.0,30.09,ENE,69,0.0,0.0,56,0.00,,,0.00,,2013-06-28 09:42:00,
2013-06-28 04:52:00,64.0,48.0,30.09,ENE,69,0.0,0.0,56,0.00,,,0.00,,2013-06-28 09:52:00,
2013-06-28 05:22:00,65.0,51.0,30.08,ENE,78,0.0,0.0,61,0.00,,,0.00,,2013-06-28 10:22:00,
2013-06-28 05:33:00,65.0,51.0,30.08,ENE,78,0.0,0.0,61,0.00,,,0.00,,2013-06-28 10:33:00,
2013-06-28 05:42:00,65.0,51.0,30.08,ENE,78,0.0,0.0,61,0.00,,,0.00,,2013-06-28 10:42:00,
2013-06-28 05:52:00,65.0,52.0,30.10,ENE,78,0.0,0.0,62,0.00,,,0.00,,2013-06-28 10:52:00,
2013-06-28 06:02:00,65.0,52.0,30.10,ENE,78,0.0,0.0,62,0.00,,,0.00,,2013-06-28 11:02:00,
2013-06-28 06:11:00,65.0,52.0,30.10,ENE,78,0.0,0.0,62,0.00,,,0.00,,2013-06-28 11:11:00,
2013-06-28 06:22:00,65.0,52.0,30.12,ENE,78,0.0,0.0,62,0.00,,,0.00,,2013-06-28 11:22:00,
2013-06-28 06:34:00,65.0,52.0,30.12,ENE,78,0.0,0.0,62,0.00,,,0.00,,2013-06-28 11:34:00,
2013-06-28 06:43:00,65.0,52.0,30.12,ENE,78,0.0,0.0,62,0.00,,,0.00,,2013-06-28 11:43:00,
2013-06-28 06:53:00,65.0,52.0,30.11,ENE,78,0.0,0.0,62,0.00,,,0.00,,2013-06-28 11:53:00,
2013-06-28 07:01:00,65.0,52.0,30.11,ENE,78,0.0,0.0,62,0.00,,,0.00,,2013-06-28 12:01:00,
2013-06-28 07:12:00,65.0,52.0,30.11,ENE,78,0.0,0.0,62,0.00,,,0.00,,2013-06-28 12:12:00,
2013-06-28 07:22:00,65.0,52.0,30.12,ENE,78,0.0,0.0,62,0.00,,,0.00,,2013-06-28 12:22:00,
2013-06-28 07:33:00,65.0,52.0,30.12,ENE,78,0.0,0.0,62,0.00,,,0.00,,2013-06-28 12:33:00,
2013-06-28 07:43:00,65.0,52.0,30.12,ENE,78,0.0,0.0,62,0.00,,,0.00,,2013-06-28 12:43:00,
2013-06-28 07:52:00,64.0,52.0,30.13,ENE,78,0.0,0.0,64,0.00,,,0.00,,2013-06-28 12:52:00,
2013-06-28 08:01:00,64.0,52.0,30.13,ENE,78,0.0,0.0,64,0.00,,,0.00,,2013-06-28 13:01:00,
2013-06-28 08:11:00,64.0,52.0,30.13,ENE,78,0.0,0.0,64,0.00,,,0.00,,2013-06-28 13:11:00,
2013-06-28 08:23:00,64.0,52.0,30.13,East,79,0.0,0.0,65,0.00,,,0.00,,2013-06-28 13:23:00,
2013-06-28 08:33:00,64.0,52.0,30.13,East,79,0.0,0.0,65,0.00,,,0.00,,2013-06-28 13:33:00,
2013-06-28 08:43:00,64.0,52.0,30.13,East,79,0.0,0.0,65,0.00,,,0.00,,2013-06-28 13:43:00,
2013-06-28 08:53:00,66.0,53.0,30.13,East,79,0.0,0.0,62,0.00,,,0.00,,2013-06-28 13:53:00,
2013-06-28 09:01:00,66.0,53.0,30.13,East,79,0.0,0.0,62,0.00,,,0.00,,2013-06-28 14:01:00,
2013-06-28 09:12:00,66.0,53.0,30.13,East,79,0.0,0.0,62,0.00,,,0.00,,2013-06-28 14:12:00,
2013-06-28 09:22:00,72.0,54.0,30.13,East,79,0.0,0.0,53,0.00,,,0.00,,2013-06-28 14:22:00,
2013-06-28 09:33:00,72.0,54.0,30.13,East,79,0.0,0.0,53,0.00,,,0.00,,2013-06-28 14:33:00,
2013-06-28 09:44:00,72.0,54.0,30.13,East,79,0.0,0.0,53,0.00,,,0.00,,2013-06-28 14:44:00,
2013-06-28 09:53:00,76.0,49.0,30.14,East,79,0.0,0.0,38,0.00,,,0.00,,2013-06-28 14:53:00,
2013-06-28 10:02:00,76.0,49.0,30.14,East,79,0.0,0.0,38,0.00,,,0.00,,2013-06-28 15:02:00,
2013-06-28 10:11:00,76.0,49.0,30.14,East,79,0.0,0.0,38,0.00,,,0.00,,2013-06-28 15:11:00,
2013-06-28 10:24:00,81.0,49.0,30.14,East,79,0.0,0.0,33,0.00,,,0.00,,2013-06-28 15:24:00,
2013-06-28 10:34:00,81.0,49.0,30.14,East,79,0.0,0.0,33,0.00,,,0.00,,2013-06-28 15:34:00,
2013-06-28 10:43:00,81.0,49.0,30.14,East,79,0.0,0.0,33,0.00,,,0.00,,2013-06-28 15:43:00,
2013-06-28 10:52:00,84.0,44.0,30.15,ESE,106,1.0,4.0,25,0.00,,,0.00,,2013-06-28 15:52:00,
2013-06-28 11:01:00,84.0,44.0,30.15,ESE,106,1.0,4.0,25,0.00,,,0.00,,2013-06-28 16:01:00,
2013-06-28 11:11:00,84.0,44.0,30.15,ESE,106,1.0,4.0,25,0.00,,,0.00,,2013-06-28 16:11:00,
2013-06-28 11:24:00,86.0,46.0,30.15,ESE,104,1.0,7.0,25,0.00,,,0.00,,2013-06-28 16:24:00,
2013-06-28 11:33:00,86.0,46.0,30.15,ESE,104,1.0,7.0,25,0.00,,,0.00,,2013-06-28 16:33:00,
2013-06-28 11:44:00,86.0,46.0,30.15,ESE,104,1.0,7.0,25,0.00,,,0.00,,2013-06-28 16:44:00,
2013-06-28 11:53:00,87.0,48.0,30.15,ESE,106,0.0,8.0,26,0.00,,,0.00,,2013-06-28 16:53:00,
2013-06-28 12:02:00,87.0,48.0,30.15,ESE,106,0.0,8.0,26,0.00,,,0.00,,2013-06-28 17:02:00,
2013-06-28 12:11:00,87.0,48.0,30.15,ESE,106,0.0,8.0,26,0.00,,,0.00,,2013-06-28 17:11:00,
2013-06-28 12:22:00,88.0,48.0,30.15,ENE,59,4.0,12.0,25,0.00,,,0.00,,2013-06-28 17:22:00,
2013-06-28 12:33:00,88.0,48.0,30.15,ENE,59,4.0,12.0,25,0.00,,,0.00,,2013-06-28 17:33:00,
2013-06-28 12:44:00,88.0,48.0,30.15,ENE,59,4.0,12.0,25,0.00,,,0.00,,2013-06-28 17:44:00,
2013-06-28 12:52:00,89.0,49.0,30.15,ENE,76,4.0,8.0,25,0.00,,,0.00,,2013-06-28 17:52:00,
2013-06-28 13:01:00,89.0,49.0,30.15,ENE,76,4.0,8.0,25,0.00,,,0.00,,2013-06-28 18:01:00,
2013-06-28 13:11:00,89.0,49.0,30.15,ENE,76,4.0,8.0,25,0.00,,,0.00,,2013-06-28 18:11:00,
2013-06-28 13:22:00,89.0,47.0,30.15,NNE,24,0.0,12.0,24,0.00,,,0.00,,2013-06-28 18:22:00,
2013-06-28 13:33:00,89.0,47.0,30.15,NNE,24,0.0,12.0,24,0.00,,,0.00,,2013-06-28 18:33:00,
2013-06-28 13:43:00,89.0,47.0,30.15,NNE,24,0.0,12.0,24,0.00,,,0.00,,2013-06-28 18:43:00,
2013-06-28 13:52:00,90.0,48.0,30.13,ESE,103,0.0,8.0,24,0.00,,,0.00,,2013-06-28 18:52:00,
2013-06-28 14:01:00,90.0,48.0,30.13,ESE,103,0.0,8.0,24,0.00,,,0.00,,2013-06-28 19:01:00,
2013-06-28 14:11:00,90.0,48.0,30.13,ESE,103,0.0,8.0,24,0.00,,,0.00,,2013-06-28 19:11:00,
2013-06-28 14:22:00,90.0,45.0,30.13,SSE,150,2.0,14.0,21,0.00,,,0.00,,2013-06-28 19:22:00,
2013-06-28 14:33:00,90.0,45.0,30.13,SSE,150,2.0,14.0,21,0.00,,,0.00,,2013-06-28 19:33:00,
2013-06-28 14:43:00,90.0,45.0,30.13,SSE,150,2.0,14.0,21,0.00,,,0.00,,2013-06-28 19:43:00,
2013-06-28 14:53:00,92.0,45.0,30.12,SE,128,0.0,10.0,20,0.00,,,0.00,,2013-06-28 19:53:00,
2013-06-28 15:02:00,92.0,45.0,30.12,SE,128,0.0,10.0,20,0.00,,,0.00,,2013-06-28 20:02:00,
2013-06-28 15:11:00,92.0,45.0,30.12,SE,128,0.0,10.0,20,0.00,,,0.00,,2013-06-28 20:11:00,
2013-06-28 15:22:00,93.0,46.0,30.10,NNE,25,0.0,12.0,20,0.00,,,0.00,,2013-06-28 20:22:00,
2013-06-28 15:33:00,93.0,46.0,30.10,NNE,25,0.0,12.0,20,0.00,,,0.00,,2013-06-28 20:33:00,
2013-06-28 15:43:00,93.0,46.0,30.10,NNE,25,0.0,12.0,20,0.00,,,0.00,,2013-06-28 20:43:00,
2013-06-28 15:52:00,93.0,45.0,30.09,SE,128,3.0,16.0,19,0.00,,,0.00,,2013-06-28 20:52:00,
2013-06-28 16:01:00,93.0,45.0,30.09,SE,128,3.0,16.0,19,0.00,,,0.00,,2013-06-28 21:01:00,
2013-06-28 16:11:00,93.0,45.0,30.09,SE,128,3.0,16.0,19,0.00,,,0.00,,2013-06-28 21:11:00,
2013-06-28 16:23:00,93.0,45.0,30.09,ESE,116,0.0,11.0,19,0.00,,,0.00,,2013-06-28 21:23:00,
2013-06-28 16:34:00,93.0,45.0,30.09,ESE,116,0.0,11.0,19,0.00,,,0.00,,2013-06-28 21:34:00,
2013-06-28 16:43:00,93.0,45.0,30.09,ESE,116,0.0,11.0,19,0.00,,,0.00,,2013-06-28 21:43:00,
2013-06-28 16:53:00,94.0,44.0,30.07,ENE,65,3.0,14.0,18,0.00,,,0.00,,2013-06-28 21:53:00,
2013-06-28 17:01:00,94.0,44.0,30.07,ENE,65,3.0,14.0,18,0.00,,,0.00,,2013-06-28 22:01:00,
2013-06-28 17:11:00,94.0,44.0,30.07,ENE,65,3.0,14.0,18,0.00,,,0.00,,2013-06-28 22:11:00,
2013-06-28 17:22:00,93.0,43.0,30.06,North,349,1.0,19.0,18,0.00,,,0.00,,2013-06-28 22:22:00,
2013-06-28 17:34:00,93.0,43.0,30.06,North,349,1.0,19.0,18,0.00,,,0.00,,2013-06-28 22:34:00,
2013-06-28 17:43:00,93.0,43.0,30.06,North,349,1.0,19.0,18,0.00,,,0.00,,2013-06-28 22:43:00,
2013-06-28 17:52:00,91.0,43.0,30.06,ENE,65,3.0,11.0,19,0.00,,,0.00,,2013-06-28 22:52:00,
2013-06-28 18:01:00,91.0,43.0,30.06,ENE,65,3.0,11.0,19,0.00,,,0.00,,2013-06-28 23:01:00,
2013-06-28 18:11:00,91.0,43.0,30.06,ENE,65,3.0,11.0,19,0.00,,,0.00,,2013-06-28 23:11:00,
2013-06-28 18:23:00,90.0,43.0,30.07,South,176,0.0,13.0,20,0.00,,,0.00,,2013-06-28 23:23:00,
2013-06-28 18:34:00,90.0,43.0,30.07,South,176,0.0,13.0,20,0.00,,,0.00,,2013-06-28 23:34:00,
2013-06-28 18:43:00,90.0,43.0,30.07,South,176,0.0,13.0,20,0.00,,,0.00,,2013-06-28 23:43:00,
2013-06-28 18:53:00,89.0,43.0,30.05,SE,140,2.0,12.0,20,0.00,,,0.00,,2013-06-28 23:53:00,
2013-06-28 19:00:00,88.0,46.0,30.05,East,92,0.0,11.0,23,0.00,,,0.00,,2013-06-29 00:00:00,
2013-06-28 19:02:00,89.0,43.0,30.05,SE,140,2.0,12.0,20,0.00,,,0.00,,2013-06-29 00:02:00,
2013-06-28 19:11:00,89.0,43.0,30.05,SE,140,2.0,12.0,20,0.00,,,0.00,,2013-06-29 00:11:00,
2013-06-28 19:22:00,88.0,46.0,30.05,East,92,0.0,11.0,23,0.00,,,0.00,,2013-06-29 00:22:00,
2013-06-28 19:33:00,88.0,46.0,30.05,East,92,0.0,11.0,23,0.00,,,0.00,,2013-06-29 00:33:00,
2013-06-28 19:42:00,88.0,46.0,30.05,East,92,0.0,11.0,23,0.00,,,0.00,,2013-06-29 00:42:00,
2013-06-28 19:52:00,88.0,46.0,30.05,East,92,0.0,11.0,23,0.00,,,0.00,,2013-06-29 00:52:00,